createdAt,value
2022-12-18T00:00:56.919Z,69.9
2022-12-18T00:02:13.215Z,68.7
2022-12-18T00:03:29.505Z,70.9
2022-12-18T00:04:44.819Z,66.8
2022-12-18T00:06:01.119Z,71
2022-12-18T00:07:17.410Z,66.5
2022-12-18T00:08:33.706Z,64.9
2022-12-18T00:09:49.994Z,65.6
2022-12-18T00:11:06.291Z,67
2022-12-18T00:12:22.594Z,62.5
2022-12-18T00:13:38.878Z,64.1
2022-12-18T00:14:55.176Z,69.8
2022-12-18T00:16:11.486Z,68.1
2022-12-18T00:17:27.770Z,67.1
2022-12-18T00:18:44.053Z,71.2
2022-12-18T00:20:00.360Z,65.9
2022-12-18T00:21:15.655Z,57.8
2022-12-18T00:22:31.962Z,58.9
2022-12-18T00:23:48.244Z,60.3
2022-12-18T00:25:04.554Z,59.3
2022-12-18T00:26:20.850Z,69.8
2022-12-18T00:27:37.130Z,59.4
2022-12-18T00:28:53.434Z,58.5
2022-12-18T00:30:09.730Z,62
2022-12-18T00:31:26.012Z,57.1
2022-12-18T00:32:42.317Z,65.6
2022-12-18T00:33:58.613Z,63.1
2022-12-18T00:35:14.912Z,61
2022-12-18T00:36:31.192Z,66.8
2022-12-18T00:37:46.513Z,66.7
2022-12-18T00:39:02.795Z,63.2
2022-12-18T00:40:19.106Z,60.6
2022-12-18T00:41:35.393Z,62.1
2022-12-18T00:42:51.690Z,63.2
2022-12-18T00:44:07.989Z,67
2022-12-18T00:45:24.281Z,59.9
2022-12-18T00:46:40.575Z,63
2022-12-18T00:47:56.867Z,62.7
2022-12-18T00:49:13.175Z,62.6
2022-12-18T00:50:29.443Z,61.6
2022-12-18T00:51:45.748Z,61.9
2022-12-18T00:53:02.032Z,64.6
2022-12-18T00:54:17.355Z,62.2
2022-12-18T00:55:33.642Z,61.8
2022-12-18T00:56:49.954Z,62.4
2022-12-18T00:58:06.255Z,63
2022-12-18T00:59:22.539Z,58.5
2022-12-18T01:00:38.824Z,64.1
2022-12-18T01:01:55.116Z,60.1
2022-12-18T01:03:11.426Z,53.1
2022-12-18T01:04:27.700Z,57
2022-12-18T01:05:44.014Z,55.7
2022-12-18T01:07:00.300Z,55.5
2022-12-18T01:08:16.589Z,59.7
2022-12-18T01:09:32.890Z,55.9
2022-12-18T01:10:48.193Z,53.5
2022-12-18T01:12:04.501Z,52.8
2022-12-18T01:13:20.790Z,53.5
2022-12-18T01:14:37.091Z,53.8
2022-12-18T01:15:53.381Z,56.3
2022-12-18T01:17:09.684Z,58.3
2022-12-18T01:18:25.957Z,55.5
2022-12-18T01:19:42.253Z,53.3
2022-12-18T01:20:58.569Z,49.3
2022-12-18T01:22:14.843Z,57
2022-12-18T01:23:31.160Z,54.5
2022-12-18T01:24:47.437Z,51.7
2022-12-18T01:26:03.730Z,53.9
2022-12-18T01:27:19.047Z,58.4
2022-12-18T01:28:35.333Z,58.9
2022-12-18T01:29:51.636Z,62.4
2022-12-18T01:31:07.934Z,56.9
2022-12-18T01:32:24.228Z,60.3
2022-12-18T01:33:40.520Z,56.5
2022-12-18T01:34:56.815Z,58.1
2022-12-18T01:36:13.102Z,58.6
2022-12-18T01:37:29.394Z,63.4
2022-12-18T01:38:45.689Z,61.1
2022-12-18T01:40:02.003Z,56.9
2022-12-18T01:41:18.289Z,57.5
2022-12-18T01:42:34.596Z,59.5
2022-12-18T01:43:49.903Z,56.5
2022-12-18T01:45:06.200Z,62.3
2022-12-18T01:46:22.487Z,61.9
2022-12-18T01:47:38.782Z,54.6
2022-12-18T01:48:55.074Z,63.4
2022-12-18T01:50:11.377Z,52.1
2022-12-18T01:51:27.669Z,59.9
2022-12-18T01:52:43.955Z,58.1
2022-12-18T01:54:00.242Z,58.5
2022-12-18T01:55:16.545Z,54.4
2022-12-18T01:56:32.829Z,53.8
2022-12-18T01:57:49.124Z,53.3
2022-12-18T01:59:05.431Z,54.9
2022-12-18T02:00:20.747Z,54.8
2022-12-18T02:01:37.025Z,54.7
2022-12-18T02:02:53.339Z,53.2
2022-12-18T02:04:09.628Z,52.6
2022-12-18T02:05:25.928Z,50.9
2022-12-18T02:06:42.215Z,48.5
2022-12-18T02:07:58.498Z,52.4
2022-12-18T02:09:14.796Z,48
2022-12-18T02:10:31.106Z,53.8
2022-12-18T02:11:47.389Z,53.8
2022-12-18T02:13:03.692Z,51.1
2022-12-18T02:14:19.993Z,51.1
2022-12-18T02:15:36.268Z,49.3
2022-12-18T02:16:51.582Z,53.1
2022-12-18T02:18:07.874Z,53.3
2022-12-18T02:19:24.184Z,51.2
2022-12-18T02:20:40.471Z,51.7
2022-12-18T02:21:56.766Z,53.9
2022-12-18T02:23:13.073Z,51.4
2022-12-18T02:24:29.358Z,50.9
2022-12-18T02:25:45.650Z,55.2
2022-12-18T02:27:01.939Z,53.7
2022-12-18T02:28:18.237Z,60.4
2022-12-18T02:29:34.551Z,53.8
2022-12-18T02:30:50.820Z,53
2022-12-18T02:32:07.126Z,52.2
2022-12-18T02:33:22.435Z,48.7
2022-12-18T02:34:38.722Z,55.4
2022-12-18T02:35:55.012Z,51.2
2022-12-18T02:37:11.335Z,58.4
2022-12-18T02:38:27.598Z,52.5
2022-12-18T02:39:43.904Z,49
2022-12-18T02:41:00.192Z,51.3
2022-12-18T02:42:16.484Z,49.5
2022-12-18T02:43:32.790Z,54.7
2022-12-18T02:44:49.084Z,50.8
2022-12-18T02:46:05.377Z,53
2022-12-18T02:47:21.676Z,54.4
2022-12-18T02:48:37.960Z,49.4
2022-12-18T02:49:53.281Z,55.7
2022-12-18T02:51:09.570Z,49.7
2022-12-18T02:52:25.856Z,48.5
2022-12-18T02:53:42.148Z,50.4
2022-12-18T02:54:58.453Z,47.6
2022-12-18T02:56:14.737Z,46.5
2022-12-18T02:57:31.032Z,47.2
2022-12-18T02:58:47.328Z,47
2022-12-18T03:00:03.633Z,45.5
2022-12-18T03:01:19.932Z,47.3
2022-12-18T03:02:36.212Z,45.4
2022-12-18T03:03:52.509Z,47.8
2022-12-18T03:05:08.806Z,45.7
2022-12-18T03:06:24.116Z,47.7
2022-12-18T03:07:40.419Z,43
2022-12-18T03:08:56.699Z,49.3
2022-12-18T03:10:12.996Z,47.4
2022-12-18T03:11:29.292Z,44.8
2022-12-18T03:12:45.582Z,45.8
2022-12-18T03:14:00.906Z,45.7
2022-12-18T03:15:17.193Z,43.1
2022-12-18T03:16:33.493Z,49.9
2022-12-18T03:17:49.792Z,50.5
2022-12-18T03:19:06.083Z,42.9
2022-12-18T03:20:22.377Z,44.1
2022-12-18T03:21:38.671Z,49
2022-12-18T03:22:54.969Z,46.8
2022-12-18T03:24:11.272Z,49.5
2022-12-18T03:25:27.555Z,45.7
2022-12-18T03:26:43.853Z,47.5
2022-12-18T03:28:00.152Z,44.2
2022-12-18T03:29:16.432Z,49.7
2022-12-18T03:30:31.757Z,50.1
2022-12-18T03:31:48.045Z,51
2022-12-18T03:33:04.350Z,50.1
2022-12-18T03:34:20.642Z,51.5
2022-12-18T03:35:36.920Z,51
2022-12-18T03:36:53.219Z,49.3
2022-12-18T03:38:09.511Z,49.8
2022-12-18T03:39:25.810Z,48
2022-12-18T03:40:42.115Z,47.2
2022-12-18T03:41:58.406Z,46.4
2022-12-18T03:43:14.694Z,51.8
2022-12-18T03:44:30.987Z,48.2
2022-12-18T03:45:47.288Z,45.3
2022-12-18T03:47:02.591Z,45.5
2022-12-18T03:48:18.890Z,42.3
2022-12-18T03:49:35.183Z,46.4
2022-12-18T03:50:51.477Z,49.3
2022-12-18T03:52:07.773Z,47.2
2022-12-18T03:53:24.066Z,48.4
2022-12-18T03:54:40.359Z,47.9
2022-12-18T03:55:56.663Z,41.9
2022-12-18T03:57:12.943Z,46.3
2022-12-18T03:58:29.241Z,45.8
2022-12-18T03:59:45.536Z,47
2022-12-18T04:01:01.828Z,43.9
2022-12-18T04:02:18.133Z,48.2
2022-12-18T04:03:33.434Z,45.8
2022-12-18T04:04:49.729Z,49.4
2022-12-18T04:06:06.027Z,48.2
2022-12-18T04:07:22.315Z,47.5
2022-12-18T04:08:38.615Z,48.2
2022-12-18T04:09:54.910Z,47.6
2022-12-18T04:11:11.219Z,47.2
2022-12-18T04:12:27.502Z,45.8
2022-12-18T04:13:43.799Z,48.8
2022-12-18T04:15:00.088Z,49.1
2022-12-18T04:16:16.387Z,49
2022-12-18T04:17:32.676Z,49.3
2022-12-18T04:18:48.971Z,47.9
2022-12-18T04:20:04.294Z,44.1
2022-12-18T04:21:20.586Z,46.2
2022-12-18T04:22:36.870Z,47.6
2022-12-18T04:23:53.168Z,48.3
2022-12-18T04:25:09.464Z,45.8
2022-12-18T04:26:25.761Z,45.7
2022-12-18T04:27:42.057Z,46.5
2022-12-18T04:28:58.348Z,43.3
2022-12-18T04:30:14.641Z,39.2
2022-12-18T04:31:30.941Z,41.7
2022-12-18T04:32:47.237Z,46.1
2022-12-18T04:34:03.531Z,43.2
2022-12-18T04:35:19.827Z,44.2
2022-12-18T04:36:35.134Z,46.6
2022-12-18T04:37:51.431Z,45.5
2022-12-18T04:39:07.718Z,48.4
2022-12-18T04:40:24.024Z,48.7
2022-12-18T04:41:40.305Z,44.2
2022-12-18T04:42:56.611Z,46.7
2022-12-18T04:44:12.894Z,45.4
2022-12-18T04:45:29.193Z,39.5
2022-12-18T04:46:45.495Z,42.6
2022-12-18T04:48:01.792Z,44.8
2022-12-18T04:49:18.082Z,38
2022-12-18T04:50:34.375Z,42.9
2022-12-18T04:51:50.670Z,42
2022-12-18T04:53:05.987Z,46.5
2022-12-18T04:54:22.267Z,47.9
2022-12-18T04:55:38.566Z,40.8
2022-12-18T04:56:54.875Z,39.2
2022-12-18T04:58:11.162Z,42.6
2022-12-18T04:59:27.449Z,43.7
2022-12-18T05:00:43.740Z,42.8
2022-12-18T05:02:00.036Z,39.1
2022-12-18T05:03:16.341Z,40
2022-12-18T05:04:32.630Z,37.3
2022-12-18T05:05:48.928Z,37.4
2022-12-18T05:07:05.217Z,39
2022-12-18T05:08:21.521Z,36.4
2022-12-18T05:09:36.832Z,40.3
2022-12-18T05:10:53.117Z,39
2022-12-18T05:12:09.409Z,38.7
2022-12-18T05:13:25.720Z,40.5
2022-12-18T05:14:42.000Z,36.5
2022-12-18T05:15:58.292Z,39.4
2022-12-18T05:17:14.592Z,37.4
2022-12-18T05:18:30.888Z,40.5
2022-12-18T05:19:47.173Z,42.1
2022-12-18T05:21:03.476Z,41.1
2022-12-18T05:22:19.774Z,40.1
2022-12-18T05:23:36.069Z,37.6
2022-12-18T05:24:52.356Z,35.7
2022-12-18T05:26:07.669Z,37.2
2022-12-18T05:27:23.976Z,38.2
2022-12-18T05:28:40.274Z,36.7
2022-12-18T05:29:56.564Z,38.9
2022-12-18T05:31:12.862Z,38.7
2022-12-18T05:32:29.146Z,38.9
2022-12-18T05:33:45.434Z,40.5
2022-12-18T05:35:01.740Z,40
2022-12-18T05:36:18.036Z,37.5
2022-12-18T05:37:34.334Z,40.3
2022-12-18T05:38:50.625Z,40.6
2022-12-18T05:40:06.913Z,32.3
2022-12-18T05:41:23.203Z,35.3
2022-12-18T05:42:38.515Z,42.8
2022-12-18T05:43:54.825Z,35.7
2022-12-18T05:45:11.107Z,34
2022-12-18T05:46:27.402Z,36.9
2022-12-18T05:47:43.705Z,35.8
2022-12-18T05:48:59.994Z,32.6
2022-12-18T05:50:16.285Z,41.1
2022-12-18T05:51:32.586Z,36.9
2022-12-18T05:52:48.880Z,32.9
2022-12-18T05:54:05.175Z,34.3
2022-12-18T05:55:21.461Z,35.1
2022-12-18T05:56:37.774Z,31.5
2022-12-18T05:57:54.054Z,34
2022-12-18T05:59:09.372Z,32.7
2022-12-18T06:00:25.660Z,34.8
2022-12-18T06:01:41.959Z,33.6
2022-12-18T06:02:58.000Z,34.7
2022-12-18T06:04:14.545Z,35.6
2022-12-18T06:05:30.838Z,34.9
2022-12-18T06:06:47.131Z,35.7
2022-12-18T06:08:03.426Z,34.3
2022-12-18T06:09:19.727Z,31.4
2022-12-18T06:10:36.013Z,31.6
2022-12-18T06:11:52.329Z,32.2
2022-12-18T06:13:08.608Z,33.5
2022-12-18T06:14:24.914Z,31.8
2022-12-18T06:15:40.219Z,36
2022-12-18T06:16:56.510Z,35.9
2022-12-18T06:18:12.815Z,36.2
2022-12-18T06:19:29.095Z,33.6
2022-12-18T06:20:45.389Z,38.1
2022-12-18T06:22:01.682Z,34.7
2022-12-18T06:23:17.996Z,36.5
2022-12-18T06:24:34.294Z,32.2
2022-12-18T06:25:50.581Z,35.7
2022-12-18T06:27:06.868Z,31.7
2022-12-18T06:28:23.166Z,33.4
2022-12-18T06:29:39.399Z,34.6
2022-12-18T06:30:55.694Z,41.3
2022-12-18T06:32:11.008Z,36.5
2022-12-18T06:33:27.261Z,36.6
2022-12-18T06:34:43.511Z,37.8
2022-12-18T06:35:59.802Z,34.8
2022-12-18T06:37:16.099Z,37
2022-12-18T06:38:32.393Z,34
2022-12-18T06:39:48.639Z,33.7
2022-12-18T06:41:04.941Z,36.5
2022-12-18T06:42:21.232Z,35.4
2022-12-18T06:43:37.490Z,35
2022-12-18T06:44:53.730Z,30.3
2022-12-18T06:46:09.971Z,33.5
2022-12-18T06:47:26.219Z,33.7
2022-12-18T06:48:41.464Z,30.6
2022-12-18T06:49:57.699Z,30.8
2022-12-18T06:51:13.945Z,33.9
2022-12-18T06:52:30.183Z,31.1
2022-12-18T06:53:46.424Z,33.1
2022-12-18T06:55:02.677Z,31
2022-12-18T06:56:18.908Z,29.3
2022-12-18T06:57:35.146Z,32.2
2022-12-18T06:58:51.394Z,31.6
2022-12-18T07:00:07.633Z,33.2
2022-12-18T07:01:23.888Z,33.2
2022-12-18T07:02:40.115Z,35.3
2022-12-18T07:03:56.356Z,35.2
2022-12-18T07:05:11.621Z,27.8
2022-12-18T07:06:27.865Z,36.2
2022-12-18T07:07:44.103Z,32
2022-12-18T07:09:00.345Z,33.7
2022-12-18T07:10:16.590Z,31.8
2022-12-18T07:11:32.818Z,28.6
2022-12-18T07:12:49.060Z,34.8
2022-12-18T07:14:05.308Z,34.3
2022-12-18T07:15:21.540Z,30.8
2022-12-18T07:16:37.782Z,31.8
2022-12-18T07:17:54.025Z,35
2022-12-18T07:19:10.271Z,35.8
2022-12-18T07:20:26.506Z,33.3
2022-12-18T07:21:41.764Z,31
2022-12-18T07:22:57.999Z,31.2
2022-12-18T07:24:14.249Z,28.7
2022-12-18T07:25:30.481Z,30.1
2022-12-18T07:26:46.725Z,32
2022-12-18T07:28:02.981Z,32.1
2022-12-18T07:29:18.231Z,27.8
2022-12-18T07:30:34.467Z,28.7
2022-12-18T07:31:50.720Z,30.8
2022-12-18T07:33:06.953Z,29.2
2022-12-18T07:34:23.198Z,32.3
2022-12-18T07:35:39.430Z,31.1
2022-12-18T07:36:55.675Z,31.8
2022-12-18T07:38:11.921Z,33.4
2022-12-18T07:39:28.163Z,33.1
2022-12-18T07:40:44.399Z,32.3
2022-12-18T07:42:00.000Z,29.4
2022-12-18T07:43:16.882Z,31.5
2022-12-18T07:44:33.127Z,29.9
2022-12-18T07:45:48.373Z,35
2022-12-18T07:47:04.621Z,33.2
2022-12-18T07:48:20.860Z,30.9
2022-12-18T07:49:37.099Z,29.1
2022-12-18T07:50:53.341Z,28.1
2022-12-18T07:52:09.597Z,30.7
2022-12-18T07:53:25.827Z,31.7
2022-12-18T07:54:42.076Z,41.1
2022-12-18T07:55:58.306Z,32.3
2022-12-18T07:57:14.546Z,35.4
2022-12-18T07:58:30.792Z,28.8
2022-12-18T07:59:47.030Z,34.7
2022-12-18T08:01:03.271Z,38.1
2022-12-18T08:02:18.526Z,36
2022-12-18T08:03:34.772Z,36
2022-12-18T08:04:51.011Z,27.7
2022-12-18T08:06:07.253Z,29.1
2022-12-18T08:07:23.503Z,30.4
2022-12-18T08:08:39.739Z,28.9
2022-12-18T08:09:55.970Z,31.6
2022-12-18T08:11:12.219Z,27.1
2022-12-18T08:12:28.456Z,29.1
2022-12-18T08:13:44.710Z,29.6
2022-12-18T08:15:00.942Z,31.6
2022-12-18T08:16:17.178Z,34.8
2022-12-18T08:17:33.427Z,27.9
2022-12-18T08:18:48.687Z,34.6
2022-12-18T08:20:04.917Z,26.4
2022-12-18T08:21:21.165Z,26.1
2022-12-18T08:22:37.403Z,27.9
2022-12-18T08:23:53.653Z,28.6
2022-12-18T08:25:09.877Z,22.5
2022-12-18T08:26:26.129Z,24.8
2022-12-18T08:27:42.361Z,25.9
2022-12-18T08:28:58.598Z,25.1
2022-12-18T08:30:14.847Z,21.8
2022-12-18T08:31:31.086Z,24.7
2022-12-18T08:32:47.330Z,22.9
2022-12-18T08:34:03.557Z,26.2
2022-12-18T08:35:18.817Z,23.1
2022-12-18T08:36:35.062Z,20.8
2022-12-18T08:37:51.301Z,25.4
2022-12-18T08:39:07.551Z,25.5
2022-12-18T08:40:23.790Z,25.6
2022-12-18T08:41:40.022Z,23.4
2022-12-18T08:42:56.259Z,21.5
2022-12-18T08:44:12.497Z,20.8
2022-12-18T08:45:28.745Z,19.4
2022-12-18T08:46:44.978Z,23.3
2022-12-18T08:48:01.222Z,23.6
2022-12-18T08:49:17.465Z,19.9
2022-12-18T08:50:33.705Z,25.9
2022-12-18T08:51:48.960Z,23.4
2022-12-18T08:53:05.201Z,20.2
2022-12-18T08:54:21.452Z,23.9
2022-12-18T08:55:37.692Z,19.9
2022-12-18T08:56:53.926Z,22.2
2022-12-18T08:58:10.168Z,19.5
2022-12-18T08:59:26.416Z,20.3
2022-12-18T09:00:42.645Z,21.4
2022-12-18T09:01:58.895Z,21.3
2022-12-18T09:03:15.121Z,22.7
2022-12-18T09:04:31.372Z,17.7
2022-12-18T09:05:47.609Z,22.1
2022-12-18T09:07:03.849Z,20.3
2022-12-18T09:08:19.112Z,23.1
2022-12-18T09:09:35.348Z,22.1
2022-12-18T09:10:51.584Z,21.6
2022-12-18T09:12:07.825Z,20.7
2022-12-18T09:13:24.067Z,21.2
2022-12-18T09:14:40.313Z,21.4
2022-12-18T09:15:56.553Z,20.2
2022-12-18T09:17:12.793Z,22.1
2022-12-18T09:18:29.026Z,19.4
2022-12-18T09:19:45.265Z,20.5
2022-12-18T09:21:01.511Z,19.1
2022-12-18T09:22:17.749Z,21.9
2022-12-18T09:23:33.999Z,19.7
2022-12-18T09:24:49.245Z,19.6
2022-12-18T09:26:05.490Z,20.5
2022-12-18T09:27:21.723Z,25.4
2022-12-18T09:28:37.980Z,17.1
2022-12-18T09:29:54.217Z,20.6
2022-12-18T09:31:10.457Z,20.1
2022-12-18T09:32:26.690Z,21
2022-12-18T09:33:42.945Z,20.1
2022-12-18T09:34:59.179Z,18.3
2022-12-18T09:36:15.418Z,19.8
2022-12-18T09:37:31.656Z,19.4
2022-12-18T09:38:47.898Z,16.1
2022-12-18T09:40:04.140Z,17
2022-12-18T09:41:19.406Z,19.2
2022-12-18T09:42:35.628Z,19.1
2022-12-18T09:43:51.868Z,18
2022-12-18T09:45:08.117Z,16.4
2022-12-18T09:46:24.350Z,18.8
2022-12-18T09:47:40.596Z,18
2022-12-18T09:48:56.834Z,18
2022-12-18T09:50:13.087Z,18.6
2022-12-18T09:51:29.324Z,16.4
2022-12-18T09:52:45.556Z,17.7
2022-12-18T09:54:01.791Z,15.9
2022-12-18T09:55:18.051Z,14.9
2022-12-18T09:56:34.288Z,16.6
2022-12-18T09:57:49.537Z,14.3
2022-12-18T09:59:05.765Z,14.3
2022-12-18T10:00:22.024Z,16.2
2022-12-18T10:01:38.263Z,14.2
2022-12-18T10:02:54.488Z,17.8
2022-12-18T10:04:10.725Z,14.3
2022-12-18T10:05:26.971Z,17.1
2022-12-18T10:06:43.205Z,17.9
2022-12-18T10:07:59.451Z,16.7
2022-12-18T10:09:15.686Z,18.8
2022-12-18T10:10:31.928Z,18.6
2022-12-18T10:11:48.169Z,16.7
2022-12-18T10:13:04.418Z,15.7
2022-12-18T10:14:19.664Z,18.1
2022-12-18T10:15:35.903Z,14.4
2022-12-18T10:16:52.145Z,18
2022-12-18T10:18:08.386Z,17.9
2022-12-18T10:19:24.618Z,15.4
2022-12-18T10:20:40.873Z,18.3
2022-12-18T10:21:57.108Z,18.7
2022-12-18T10:23:13.339Z,18.1
2022-12-18T10:24:29.577Z,17.6
2022-12-18T10:25:45.829Z,17.7
2022-12-18T10:27:02.056Z,17.6
2022-12-18T10:28:18.304Z,18
2022-12-18T10:29:34.540Z,21.1
2022-12-18T10:30:49.788Z,18.6
2022-12-18T10:32:06.028Z,17.9
2022-12-18T10:33:22.270Z,19.2
2022-12-18T10:34:38.521Z,20.7
2022-12-18T10:35:54.764Z,19.9
2022-12-18T10:37:10.994Z,19.1
2022-12-18T10:38:27.226Z,20.1
2022-12-18T10:39:43.465Z,17.4
2022-12-18T10:40:59.714Z,18.4
2022-12-18T10:42:15.953Z,18.3
2022-12-18T10:43:32.187Z,19.6
2022-12-18T10:44:48.440Z,18.4
2022-12-18T10:46:04.677Z,16.5
2022-12-18T10:47:21.029Z,16.6
2022-12-18T10:48:37.264Z,19.7
2022-12-18T10:49:53.519Z,16.1
2022-12-18T10:51:09.765Z,18.5
2022-12-18T10:52:25.991Z,19.8
2022-12-18T10:53:42.221Z,21.4
2022-12-18T10:54:58.474Z,18.6
2022-12-18T10:56:14.712Z,19.8
2022-12-18T10:57:30.946Z,19
2022-12-18T10:58:47.190Z,23.5
2022-12-18T11:00:03.417Z,20.1
2022-12-18T11:01:19.659Z,21.7
2022-12-18T11:02:35.901Z,18.7
2022-12-18T11:03:51.158Z,17.5
2022-12-18T11:05:07.397Z,20.4
2022-12-18T11:06:23.633Z,17.9
2022-12-18T11:07:39.888Z,22
2022-12-18T11:08:56.127Z,22.6
2022-12-18T11:10:12.360Z,18.8
2022-12-18T11:11:28.599Z,19.4
2022-12-18T11:12:44.829Z,18
2022-12-18T11:14:01.076Z,21.4
2022-12-18T11:15:17.313Z,20
2022-12-18T11:16:33.559Z,19.5
2022-12-18T11:17:49.797Z,21.6
2022-12-18T11:19:06.036Z,18.7
2022-12-18T11:20:21.282Z,20.7
2022-12-18T11:21:37.541Z,20.2
2022-12-18T11:22:53.783Z,21.9
2022-12-18T11:24:10.010Z,20.5
2022-12-18T11:25:26.243Z,21.1
2022-12-18T11:26:42.483Z,19.4
2022-12-18T11:27:58.731Z,21.6
2022-12-18T11:29:14.960Z,23
2022-12-18T11:30:31.195Z,18.5
2022-12-18T11:31:47.437Z,18.9
2022-12-18T11:33:03.684Z,19.9
2022-12-18T11:34:19.919Z,18.8
2022-12-18T11:35:36.168Z,21.8
2022-12-18T11:36:51.421Z,21.5
2022-12-18T11:38:07.656Z,21.4
2022-12-18T11:39:23.898Z,19.9
2022-12-18T11:40:40.144Z,22
2022-12-18T11:41:56.371Z,21.5
2022-12-18T11:43:12.625Z,23.4
2022-12-18T11:44:27.871Z,22.2
2022-12-18T11:45:44.117Z,23.6
2022-12-18T11:47:00.354Z,21.2
2022-12-18T11:48:16.584Z,22.3
2022-12-18T11:49:32.844Z,22.9
2022-12-18T11:50:49.070Z,22.9
2022-12-18T11:52:05.313Z,21.7
2022-12-18T11:53:21.000Z,23
2022-12-18T11:54:37.790Z,22.9
2022-12-18T11:55:54.027Z,22.4
2022-12-18T11:57:10.273Z,23.1
2022-12-18T11:58:26.504Z,21.2
2022-12-18T11:59:42.740Z,25.2
2022-12-18T12:00:57.997Z,24.7
2022-12-18T12:02:14.247Z,26
2022-12-18T12:03:30.481Z,22.6
2022-12-18T12:04:46.716Z,25.8
2022-12-18T12:06:02.962Z,31.7
2022-12-18T12:07:19.210Z,34.2
2022-12-18T12:08:35.438Z,31.8
2022-12-18T12:09:51.675Z,33.4
2022-12-18T12:11:07.927Z,34.5
2022-12-18T12:12:24.163Z,28.3
2022-12-18T12:13:40.393Z,30.7
2022-12-18T12:14:56.643Z,27.5
2022-12-18T12:16:12.877Z,28.8
2022-12-18T12:17:28.123Z,23.6
2022-12-18T12:18:44.380Z,27.1
2022-12-18T12:20:00.604Z,21.2
2022-12-18T12:21:16.861Z,25.3
2022-12-18T12:22:33.081Z,22.9
2022-12-18T12:23:49.321Z,20.5
2022-12-18T12:25:05.571Z,23.2
2022-12-18T12:26:21.798Z,22
2022-12-18T12:27:38.037Z,20.2
2022-12-18T12:28:54.281Z,21.8
2022-12-18T12:30:10.519Z,22.5
2022-12-18T12:31:26.770Z,22.3
2022-12-18T12:32:43.009Z,21.6
2022-12-18T12:33:58.269Z,23.2
2022-12-18T12:35:14.497Z,23.9
2022-12-18T12:36:30.735Z,26
2022-12-18T12:37:46.967Z,23.8
2022-12-18T12:39:03.218Z,27.1
2022-12-18T12:40:19.462Z,23.9
2022-12-18T12:41:35.697Z,22.5
2022-12-18T12:42:51.946Z,24.5
2022-12-18T12:44:08.171Z,25.2
2022-12-18T12:45:24.416Z,23.1
2022-12-18T12:46:40.648Z,25.3
2022-12-18T12:47:56.895Z,26.7
2022-12-18T12:49:13.131Z,27.7
2022-12-18T12:50:28.399Z,25.6
2022-12-18T12:51:44.625Z,26.7
2022-12-18T12:53:00.875Z,28.5
2022-12-18T12:54:17.099Z,27
2022-12-18T12:55:33.346Z,29.1
2022-12-18T12:56:49.585Z,31.1
2022-12-18T12:58:05.825Z,29.1
2022-12-18T12:59:22.065Z,25.7
2022-12-18T13:00:38.300Z,29
2022-12-18T13:01:54.553Z,25.3
2022-12-18T13:03:10.798Z,26.6
2022-12-18T13:04:27.024Z,27
2022-12-18T13:05:43.256Z,33.4
2022-12-18T13:06:58.512Z,30.9
2022-12-18T13:08:14.761Z,29.3
2022-12-18T13:09:30.990Z,31.8
2022-12-18T13:10:47.239Z,35.9
2022-12-18T13:12:03.488Z,34.5
2022-12-18T13:13:19.715Z,31.8
2022-12-18T13:14:35.963Z,32.7
2022-12-18T13:15:52.208Z,28
2022-12-18T13:17:08.438Z,26.1
2022-12-18T13:18:24.667Z,29.9
2022-12-18T13:19:40.916Z,30.2
2022-12-18T13:20:57.148Z,32.2
2022-12-18T13:22:13.397Z,28.4
2022-12-18T13:23:28.664Z,28.6
2022-12-18T13:24:44.889Z,29
2022-12-18T13:26:01.138Z,26
2022-12-18T13:27:17.374Z,26.4
2022-12-18T13:28:33.613Z,27.3
2022-12-18T13:29:49.842Z,25.7
2022-12-18T13:31:06.081Z,26.9
2022-12-18T13:32:22.319Z,28.3
2022-12-18T13:33:38.562Z,28.3
2022-12-18T13:34:54.817Z,29.7
2022-12-18T13:36:11.042Z,26.7
2022-12-18T13:37:27.303Z,27.7
2022-12-18T13:38:43.533Z,26.5
2022-12-18T13:39:58.788Z,26.4
2022-12-18T13:41:15.013Z,26.3
2022-12-18T13:42:31.260Z,30.4
2022-12-18T13:43:47.500Z,31.4
2022-12-18T13:45:03.750Z,29.9
2022-12-18T13:46:19.992Z,31.1
2022-12-18T13:47:36.214Z,30.2
2022-12-18T13:48:52.459Z,31.7
2022-12-18T13:50:08.706Z,28.9
2022-12-18T13:51:24.947Z,28.9
2022-12-18T13:52:41.169Z,29.5
2022-12-18T13:53:57.423Z,33.5
2022-12-18T13:55:13.648Z,32.6
2022-12-18T13:56:28.918Z,30.6
2022-12-18T13:57:45.162Z,30
2022-12-18T13:59:01.399Z,31.1
2022-12-18T14:00:17.645Z,27.7
2022-12-18T14:01:33.872Z,31.6
2022-12-18T14:02:50.111Z,30.3
2022-12-18T14:04:06.360Z,33.4
2022-12-18T14:05:22.593Z,36.7
2022-12-18T14:06:38.828Z,31.6
2022-12-18T14:07:55.069Z,33.4
2022-12-18T14:09:11.304Z,35.5
2022-12-18T14:10:27.555Z,33.2
2022-12-18T14:11:43.797Z,40.3
2022-12-18T14:12:59.048Z,43.6
2022-12-18T14:14:15.278Z,45.2
2022-12-18T14:15:31.520Z,44.8
2022-12-18T14:16:47.774Z,45
2022-12-18T14:19:20.251Z,37.7
2022-12-18T14:20:36.490Z,32.1
2022-12-18T14:21:52.732Z,34.3
2022-12-18T14:23:08.964Z,33.7
2022-12-18T14:24:25.211Z,37
2022-12-18T14:25:41.446Z,35.5
2022-12-18T14:26:57.687Z,36.7
2022-12-18T14:28:13.926Z,36.3
2022-12-18T14:29:29.193Z,37.9
2022-12-18T14:30:45.428Z,37.6
2022-12-18T14:32:01.661Z,37.5
2022-12-18T14:33:17.897Z,38.7
2022-12-18T14:34:34.151Z,39.1
2022-12-18T14:35:50.379Z,38.1
2022-12-18T14:37:06.616Z,37.2
2022-12-18T14:38:22.855Z,38.7
2022-12-18T14:39:39.113Z,38.7
2022-12-18T14:40:55.358Z,34.8
2022-12-18T14:42:11.582Z,40.5
2022-12-18T14:43:27.826Z,38.1
2022-12-18T14:44:44.053Z,39.8
2022-12-18T14:45:59.310Z,38.9
2022-12-18T14:47:15.557Z,39.7
2022-12-18T14:48:31.812Z,42.5
2022-12-18T14:49:48.031Z,38.3
2022-12-18T14:51:04.289Z,36.7
2022-12-18T14:52:20.519Z,40.3
2022-12-18T14:53:36.754Z,45.7
2022-12-18T14:54:53.003Z,46.8
2022-12-18T14:56:09.239Z,47.7
2022-12-18T14:57:25.478Z,52.4
2022-12-18T14:58:41.716Z,56
2022-12-18T14:59:57.950Z,52.3
2022-12-18T15:01:14.203Z,48.4
2022-12-18T15:02:29.456Z,48.6
2022-12-18T15:03:45.700Z,46.1
2022-12-18T15:05:01.933Z,47.1
2022-12-18T15:06:18.166Z,43.1
2022-12-18T15:07:34.413Z,48.1
2022-12-18T15:08:50.654Z,46
2022-12-18T15:10:06.895Z,41.1
2022-12-18T15:11:23.126Z,42.8
2022-12-18T15:12:39.381Z,39.5
2022-12-18T15:13:55.608Z,39.5
2022-12-18T15:15:11.858Z,37.4
2022-12-18T15:16:28.089Z,39.6
2022-12-18T15:17:44.344Z,44.3
2022-12-18T15:18:59.605Z,46.8
2022-12-18T15:20:15.850Z,40.3
2022-12-18T15:21:32.070Z,40.8
2022-12-18T15:22:48.318Z,45.2
2022-12-18T15:24:04.545Z,44.3
2022-12-18T15:25:20.795Z,41.5
2022-12-18T15:26:37.025Z,42.6
2022-12-18T15:27:53.285Z,46.2
2022-12-18T15:29:09.514Z,47.3
2022-12-18T15:30:25.760Z,44.6
2022-12-18T15:31:42.040Z,42.2
2022-12-18T15:32:58.346Z,40.8
2022-12-18T15:34:14.640Z,40.5
2022-12-18T15:35:29.945Z,39.4
2022-12-18T15:36:46.239Z,41.1
2022-12-18T15:38:02.554Z,39.7
2022-12-18T15:39:18.848Z,39.5
2022-12-18T15:40:35.128Z,39.8
2022-12-18T15:41:51.418Z,35.1
2022-12-18T15:43:07.720Z,38.1
2022-12-18T15:44:24.008Z,36.2
2022-12-18T15:45:40.312Z,38.9
2022-12-18T15:46:56.595Z,35.8
2022-12-18T15:48:12.900Z,36.4
2022-12-18T15:49:29.180Z,37
2022-12-18T15:50:45.494Z,34.6
2022-12-18T15:52:00.796Z,38
2022-12-18T15:53:17.077Z,33.7
2022-12-18T15:54:33.391Z,55.5
2022-12-18T15:55:49.689Z,42.6
2022-12-18T15:57:05.982Z,44.4
2022-12-18T15:58:22.257Z,50
2022-12-18T15:59:37.587Z,58.7
2022-12-18T16:00:53.874Z,44.7
2022-12-18T16:02:10.159Z,50.5
2022-12-18T16:03:26.471Z,59.7
2022-12-18T16:04:42.758Z,53.4
2022-12-18T16:05:59.045Z,55.5
2022-12-18T16:07:15.336Z,61.8
2022-12-18T16:08:31.641Z,64.4
2022-12-18T16:09:47.945Z,61.5
2022-12-18T16:11:04.229Z,62.1
2022-12-18T16:12:20.531Z,61.8
2022-12-18T16:13:36.815Z,57.7
2022-12-18T16:14:53.117Z,47.5
2022-12-18T16:16:08.428Z,44.2
2022-12-18T16:17:24.728Z,47
2022-12-18T16:18:41.012Z,40.2
2022-12-18T16:19:57.311Z,46.9
2022-12-18T16:21:13.599Z,44.3
2022-12-18T16:22:29.886Z,39.9
2022-12-18T16:23:46.188Z,51.9
2022-12-18T16:25:02.491Z,45.6
2022-12-18T16:26:18.784Z,41.3
2022-12-18T16:27:35.076Z,38.8
2022-12-18T16:28:51.364Z,40.3
2022-12-18T16:30:07.000Z,37.3
2022-12-18T16:31:23.964Z,39.5
2022-12-18T16:32:39.274Z,41.4
2022-12-18T16:33:55.581Z,42.9
2022-12-18T16:35:11.848Z,39.1
2022-12-18T16:36:28.152Z,38.4
2022-12-18T16:37:44.442Z,42
2022-12-18T16:39:00.741Z,38.5
2022-12-18T16:40:17.026Z,33.7
2022-12-18T16:41:33.336Z,34.9
2022-12-18T16:42:49.629Z,34.2
2022-12-18T16:44:05.911Z,37.6
2022-12-18T16:45:22.232Z,37.1
2022-12-18T16:46:38.508Z,38.6
2022-12-18T16:47:54.812Z,38.1
2022-12-18T16:49:10.112Z,35
2022-12-18T16:50:26.403Z,34.9
2022-12-18T16:51:42.705Z,33.9
2022-12-18T16:52:58.997Z,35.4
2022-12-18T16:54:15.288Z,33.7
2022-12-18T16:55:31.596Z,31.6
2022-12-18T16:56:47.875Z,34.3
2022-12-18T16:58:04.183Z,32.2
2022-12-18T16:59:20.474Z,37.5
2022-12-18T17:00:36.764Z,35.1
2022-12-18T17:01:53.068Z,38